Date,TemperatureHighF,TemperatureAvgF,TemperatureLowF,DewpointHighF,DewpointAvgF,DewpointLowF,HumidityHigh,HumidityAvg,HumidityLow,PressureMaxIn,PressureMinIn,WindSpeedMaxMPH,WindSpeedAvgMPH,GustSpeedMaxMPH,PrecipitationSumIn
2013-2-1,32.5,27.6,21.1,17.6,9.6,3.1,63,47,32,30.02,29.52,18,2,19,0.00
2013-2-2,30.7,23.6,16.4,14.1,7.4,1.9,61,50,35,30.17,29.98,16,0,16,0.00
2013-2-3,27.8,23.9,19.4,22.1,19.8,13.4,93,85,60,29.99,29.66,10,0,10,0.00
2013-2-4,28.7,23.0,18.8,21.5,11.7,4.4,93,63,36,29.89,29.66,18,1,18,0.00
2013-2-5,26.6,23.5,20.3,22.7,15.5,9.3,94,71,60,29.95,29.86,5,0,5,0.00
2013-2-6,37.5,29.0,24.2,27.5,19.4,4.4,96,70,41,30.22,29.85,14,0,14,0.05
2013-2-7,30.6,23.6,15.7,13.9,5.7,0.3,71,48,28,30.45,30.21,7,0,8,0.00
2013-2-8,32.1,28.3,18.4,31.6,25.6,13.6,100,90,65,30.42,29.44,13,0,13,0.04
2013-2-9,22.1,18.3,12.9,20.9,16.7,10.0,95,93,88,30.12,29.42,18,2,18,0.00
2013-2-10,33.8,20.9,7.7,26.8,16.3,4.4,88,82,69,30.33,30.12,7,0,8,0.26
2013-2-11,44.2,34.2,19.7,44.2,32.4,13.3,100,93,70,30.28,29.54,12,0,12,0.22
2013-2-12,42.6,37.3,31.2,41.3,29.9,24.9,100,76,55,29.83,29.55,17,1,17,0.01
2013-2-13,42.8,33.7,26.4,27.8,24.5,21.4,87,70,48,29.81,29.62,6,0,6,0.00
2013-2-14,44.2,35.3,27.2,28.0,23.4,19.1,93,64,37,29.93,29.64,7,0,7,0.00
2013-2-15,49.6,37.9,29.4,36.4,32.3,24.0,98,82,56,29.94,29.84,16,0,16,0.00
2013-2-16,35.9,32.8,29.8,32.6,29.2,19.0,99,87,59,29.88,29.60,9,0,10,0.04
2013-2-17,29.8,21.1,16.2,23.5,11.7,-0.5,94,70,37,29.62,29.31,22,4,24,0.00
2013-2-18,29.7,21.3,14.0,4.7,0.6,-3.5,53,41,24,30.10,29.62,25,2,25,0.00
2013-2-19,46.5,35.5,20.8,43.2,25.8,0.2,100,69,38,30.11,29.51,11,0,11,0.45
2013-2-20,40.8,31.5,24.8,40.5,20.0,7.8,100,64,39,29.72,29.46,25,2,25,0.01
2013-2-21,33.1,27.1,23.3,16.3,13.6,10.6,69,57,42,30.12,29.71,18,2,20,0.00
2013-2-22,38.8,30.2,22.2,25.3,21.1,15.7,81,69,48,30.31,30.11,7,0,7,0.00
2013-2-23,38.5,33.6,30.3,32.5,29.2,24.7,99,84,70,30.27,29.82,5,0,5,0.18
2013-2-24,37.3,33.8,30.4,37.3,33.7,30.1,100,100,99,29.83,29.60,7,0,7,0.70
2013-2-25,38.0,33.3,29.1,33.6,30.6,28.9,100,90,70,30.18,29.81,6,0,6,0.16
2013-2-26,45.4,35.8,28.7,34.4,29.4,25.4,99,79,47,30.27,30.07,6,0,6,0.00
2013-2-27,41.2,38.9,35.5,40.9,38.3,31.1,100,98,84,30.08,29.50,14,0,14,1.22
2013-2-28,45.7,37.2,31.5,39.1,35.6,30.8,100,94,73,29.58,29.45,3,0,3,0.00